ESFI weather

CLOSED Knislinge Air Base
Knislinge, Skåne län, Sweden

Public forecast

Using degrees Celsius for public forecast. Weather courtesy of forecast.io.

Closest aviation weather report (METAR) to Knislinge Air Base

Closest report is Kristianstad Airport, 16.0 nm (29.7 km) S. Retrieved 2020/08/08 09:20 UTC (0 seconds ago):

ESMK 080920Z AUTO 09006KT 050V120 9999 NCD 24/18 Q1022

Closest aviation forecast (TAF) to Knislinge Air Base

Forecast is more than 12 hours old.

Closest forecast is Kristianstad Airport, 16.0 nm (29.7 km) S. Retrieved 2020/07/19 09:15 UTC (20 days ago):

TAF TAF ESMK 190907Z 1909/1921 CNL